createdAt,value
2018-10-17T00:02:23.104Z,61.28
2018-10-17T00:04:51.314Z,59.27
2018-10-17T00:07:19.531Z,62.50
2018-10-17T00:09:47.896Z,55.10
2018-10-17T00:12:16.506Z,60.17
2018-10-17T00:14:44.675Z,63.05
2018-10-17T00:17:13.006Z,62.93
2018-10-17T00:19:41.541Z,63.00
2018-10-17T00:22:09.874Z,67.17
2018-10-17T00:24:38.091Z,67.85
2018-10-17T00:27:06.306Z,62.60
2018-10-17T00:29:34.572Z,60.90
2018-10-17T00:32:02.840Z,59.18
2018-10-17T00:34:31.096Z,64.58
2018-10-17T00:36:59.826Z,56.48
2018-10-17T00:39:28.993Z,68.47
2018-10-17T00:41:57.945Z,59.75
2018-10-17T00:44:26.456Z,59.27
2018-10-17T00:46:54.819Z,55.75
2018-10-17T00:49:23.037Z,57.03
2018-10-17T00:51:51.225Z,56.90
2018-10-17T00:54:19.827Z,58.48
2018-10-17T00:56:48.076Z,53.08
2018-10-17T00:59:16.738Z,51.65
2018-10-17T01:01:44.949Z,64.58
2018-10-17T01:04:13.209Z,56.90
2018-10-17T01:06:41.403Z,70.12
2018-10-17T01:09:12.166Z,59.73
2018-10-17T01:11:41.861Z,68.78
2018-10-17T01:14:10.279Z,66.25
2018-10-17T01:16:38.512Z,67.05
2018-10-17T01:19:07.136Z,79.15
2018-10-17T01:21:35.839Z,67.67
2018-10-17T01:24:04.128Z,67.85
2018-10-17T01:26:32.356Z,57.60
2018-10-17T01:29:00.724Z,66.90
2018-10-17T01:31:28.920Z,64.30
2018-10-17T01:33:57.660Z,62.62
2018-10-17T01:36:25.842Z,61.48
2018-10-17T01:38:54.237Z,63.45
2018-10-17T01:41:22.430Z,62.45
2018-10-17T01:43:50.624Z,61.95
2018-10-17T01:46:18.818Z,60.83
2018-10-17T01:48:47.061Z,60.73
2018-10-17T01:51:15.257Z,64.37
2018-10-17T01:53:43.464Z,67.37
2018-10-17T01:56:11.700Z,63.02
2018-10-17T01:58:39.984Z,59.05
2018-10-17T02:01:08.693Z,53.30
2018-10-17T02:03:37.161Z,61.28
2018-10-17T02:06:06.643Z,63.55
2018-10-17T02:08:34.847Z,64.25
2018-10-17T02:11:03.069Z,65.05
2018-10-17T02:13:31.269Z,61.95
2018-10-17T02:15:59.865Z,65.35
2018-10-17T02:18:28.134Z,69.77
2018-10-17T02:20:56.391Z,69.50
2018-10-17T02:23:24.582Z,68.37
2018-10-17T02:25:52.787Z,76.82
2018-10-17T02:28:21.030Z,74.32
2018-10-17T02:30:50.081Z,70.85
2018-10-17T02:33:18.984Z,79.15
2018-10-17T02:35:47.269Z,74.95
2018-10-17T02:38:23.050Z,82.80
2018-10-17T02:40:51.309Z,74.72
2018-10-17T02:43:21.340Z,87.42
2018-10-17T02:45:54.212Z,85.72
2018-10-17T02:48:22.681Z,89.85
2018-10-17T02:50:52.560Z,77.47
2018-10-17T02:53:22.250Z,77.45
2018-10-17T02:55:50.657Z,83.80
2018-10-17T02:58:21.944Z,82.92
2018-10-17T03:00:50.263Z,80.40
2018-10-17T03:03:18.553Z,75.03
2018-10-17T03:05:46.922Z,73.47
2018-10-17T03:08:15.108Z,71.37
2018-10-17T03:10:43.319Z,76.75
2018-10-17T03:13:12.013Z,86.97
2018-10-17T03:15:40.293Z,73.62
2018-10-17T03:18:09.331Z,76.65
2018-10-17T03:20:37.904Z,71.22
2018-10-17T03:23:06.869Z,67.40
2018-10-17T03:25:35.115Z,69.22
2018-10-17T03:28:03.340Z,68.20
2018-10-17T03:30:31.516Z,70.52
2018-10-17T03:32:59.762Z,70.32
2018-10-17T03:35:28.178Z,67.67
2018-10-17T03:37:56.497Z,69.67
2018-10-17T03:40:24.783Z,67.37
2018-10-17T03:42:52.998Z,75.95
2018-10-17T03:45:21.512Z,62.13
2018-10-17T03:47:49.708Z,67.15
2018-10-17T03:50:18.082Z,67.22
2018-10-17T03:52:46.706Z,63.83
2018-10-17T03:55:14.948Z,72.87
2018-10-17T03:57:43.083Z,77.45
2018-10-17T04:00:11.491Z,69.15
2018-10-17T04:02:39.777Z,72.70
2018-10-17T04:05:08.223Z,80.57
2018-10-17T04:07:36.488Z,70.57
2018-10-17T04:10:04.891Z,66.02
2018-10-17T04:12:33.256Z,61.92
2018-10-17T04:15:01.483Z,66.35
2018-10-17T04:17:31.951Z,67.17
2018-10-17T04:20:01.638Z,66.20
2018-10-17T04:22:30.822Z,65.42
2018-10-17T04:25:01.391Z,67.10
2018-10-17T04:27:30.889Z,65.72
2018-10-17T04:29:59.941Z,62.50
2018-10-17T04:32:28.666Z,72.53
2018-10-17T04:34:57.227Z,71.82
2018-10-17T04:37:25.467Z,72.85
2018-10-17T04:39:53.631Z,70.20
2018-10-17T04:42:21.828Z,73.35
2018-10-17T04:44:50.086Z,75.47
2018-10-17T04:47:20.915Z,68.25
2018-10-17T04:49:49.526Z,80.45
2018-10-17T04:52:17.908Z,70.35
2018-10-17T04:54:46.432Z,72.55
2018-10-17T04:57:14.718Z,72.50
2018-10-17T04:59:42.896Z,76.10
2018-10-17T05:02:11.085Z,78.10
2018-10-17T05:04:39.674Z,71.37
2018-10-17T05:07:08.711Z,67.05
2018-10-17T05:09:37.585Z,68.83
2018-10-17T05:12:05.938Z,71.15
2018-10-17T05:14:34.173Z,64.35
2018-10-17T05:17:02.692Z,62.70
2018-10-17T05:19:30.861Z,60.75
2018-10-17T05:21:59.253Z,69.67
2018-10-17T05:24:27.603Z,71.12
2018-10-17T05:26:56.475Z,64.37
2018-10-17T05:29:24.852Z,64.75
2018-10-17T05:31:53.197Z,66.80
2018-10-17T05:34:21.436Z,66.17
2018-10-17T05:36:49.779Z,67.12
2018-10-17T05:39:18.210Z,65.85
2018-10-17T05:41:46.441Z,67.32
2018-10-17T05:44:14.749Z,67.08
2018-10-17T05:46:42.992Z,74.55
2018-10-17T05:49:11.297Z,67.70
2018-10-17T05:51:39.525Z,66.35
2018-10-17T05:54:07.752Z,72.05
2018-10-17T05:56:35.989Z,74.32
2018-10-17T05:59:04.966Z,70.03
2018-10-17T06:01:33.275Z,69.03
2018-10-17T06:04:01.450Z,73.50
2018-10-17T06:06:29.721Z,72.27
2018-10-17T06:08:57.989Z,71.25
2018-10-17T06:11:26.327Z,73.22
2018-10-17T06:13:54.491Z,79.95
2018-10-17T06:16:23.108Z,75.20
2018-10-17T06:18:51.580Z,72.72
2018-10-17T06:21:19.981Z,76.82
2018-10-17T06:23:48.562Z,75.83
2018-10-17T06:26:18.754Z,72.45
2018-10-17T06:28:47.020Z,72.25
2018-10-17T06:31:15.429Z,75.15
2018-10-17T06:33:43.668Z,75.12
2018-10-17T06:36:12.971Z,69.15
2018-10-17T06:38:43.351Z,75.55
2018-10-17T06:41:11.915Z,80.00
2018-10-17T06:43:40.293Z,82.53
2018-10-17T06:46:12.694Z,82.05
2018-10-17T06:48:41.011Z,73.78
2018-10-17T06:51:09.372Z,77.40
2018-10-17T06:53:37.676Z,82.60
2018-10-17T06:56:06.872Z,76.82
2018-10-17T06:58:35.202Z,70.05
2018-10-17T07:01:03.667Z,80.35
2018-10-17T07:03:32.528Z,70.55
2018-10-17T07:06:01.226Z,64.00
2018-10-17T07:08:30.265Z,64.22
2018-10-17T07:10:59.042Z,63.75
2018-10-17T07:13:27.292Z,59.27
2018-10-17T07:15:55.770Z,59.85
2018-10-17T07:18:24.903Z,64.15
2018-10-17T07:20:53.213Z,59.95
2018-10-17T07:23:23.979Z,58.23
2018-10-17T07:25:54.015Z,57.65
2018-10-17T07:28:23.337Z,58.20
2018-10-17T07:30:56.491Z,56.30
2018-10-17T07:33:24.694Z,57.35
2018-10-17T07:35:54.075Z,58.73
2018-10-17T07:38:24.024Z,60.45
2018-10-17T07:40:54.163Z,52.20
2018-10-17T07:43:24.326Z,49.00
2018-10-17T07:45:56.057Z,53.48
2018-10-17T07:48:24.653Z,53.52
2018-10-17T07:50:53.431Z,51.18
2018-10-17T07:53:25.256Z,54.27
2018-10-17T07:55:53.521Z,50.83
2018-10-17T07:58:25.506Z,52.10
2018-10-17T08:00:55.308Z,49.18
2018-10-17T08:03:25.332Z,52.83
2018-10-17T08:05:55.320Z,68.47
2018-10-17T08:08:24.413Z,49.27
2018-10-17T08:10:55.908Z,64.37
2018-10-17T08:13:24.225Z,44.13
2018-10-17T08:15:55.241Z,55.73
2018-10-17T08:18:24.254Z,51.13
2018-10-17T08:20:54.539Z,63.87
2018-10-17T08:23:26.159Z,47.00
2018-10-17T08:25:54.769Z,44.90
2018-10-17T08:28:24.961Z,43.00
2018-10-17T08:30:55.080Z,44.93
2018-10-17T08:33:24.973Z,40.77
2018-10-17T08:35:56.695Z,37.90
2018-10-17T08:38:25.086Z,39.70
2018-10-17T08:40:55.167Z,41.53
2018-10-17T08:43:26.065Z,36.30
2018-10-17T08:45:55.565Z,46.53
2018-10-17T08:48:25.962Z,39.00
2018-10-17T08:50:55.673Z,36.20
2018-10-17T08:53:26.119Z,36.33
2018-10-17T08:55:54.632Z,37.70
2018-10-17T08:58:26.761Z,36.43
2018-10-17T09:00:57.228Z,34.87
2018-10-17T09:03:25.875Z,36.17
2018-10-17T09:05:55.207Z,35.00
2018-10-17T09:08:23.995Z,35.20
2018-10-17T09:10:54.336Z,37.97
2018-10-17T09:13:24.924Z,35.07
2018-10-17T09:15:53.681Z,33.20
2018-10-17T09:18:26.761Z,35.57
2018-10-17T09:20:55.872Z,32.13
2018-10-17T09:23:24.788Z,34.27
2018-10-17T09:25:57.105Z,33.00
2018-10-17T09:28:25.853Z,42.20
2018-10-17T09:30:55.936Z,41.70
2018-10-17T09:33:26.937Z,33.30
2018-10-17T09:35:55.870Z,38.70
2018-10-17T09:38:26.249Z,33.92
2018-10-17T09:40:55.373Z,39.90
2018-10-17T09:43:25.733Z,36.00
2018-10-17T09:45:56.477Z,29.87
2018-10-17T09:48:25.836Z,34.60
2018-10-17T09:50:56.126Z,30.47
2018-10-17T09:53:25.997Z,34.30
2018-10-17T09:55:56.443Z,31.77
2018-10-17T09:58:25.796Z,34.53
2018-10-17T10:00:59.909Z,33.07
2018-10-17T10:03:29.115Z,29.77
2018-10-17T10:05:57.745Z,29.83
2018-10-17T10:08:26.684Z,26.73
2018-10-17T10:10:55.405Z,29.23
2018-10-17T10:13:26.077Z,28.40
2018-10-17T10:15:56.416Z,28.17
2018-10-17T10:18:25.978Z,28.60
2018-10-17T10:20:56.319Z,32.40
2018-10-17T10:23:28.576Z,28.53
2018-10-17T10:25:57.053Z,28.13
2018-10-17T10:28:25.529Z,29.50
2018-10-17T10:30:55.613Z,24.10
2018-10-17T10:33:23.918Z,24.77
2018-10-17T10:35:55.666Z,23.33
2018-10-17T10:38:25.842Z,23.57
2018-10-17T10:40:56.517Z,23.20
2018-10-17T10:43:26.721Z,22.37
2018-10-17T10:45:55.996Z,22.37
2018-10-17T10:48:25.728Z,23.97
2018-10-17T10:50:56.385Z,22.80
2018-10-17T10:53:26.267Z,20.47
2018-10-17T10:55:55.049Z,20.23
2018-10-17T10:58:24.668Z,22.67
2018-10-17T11:00:56.888Z,18.03
2018-10-17T11:03:26.216Z,18.43
2018-10-17T11:05:56.562Z,21.60
2018-10-17T11:08:26.072Z,18.73
2018-10-17T11:10:56.789Z,18.37
2018-10-17T11:13:25.978Z,18.30
2018-10-17T11:15:55.077Z,16.57
2018-10-17T11:18:27.312Z,16.63
2018-10-17T11:20:55.877Z,14.90
2018-10-17T11:23:25.102Z,17.70
2018-10-17T11:25:57.433Z,15.57
2018-10-17T11:28:25.759Z,17.07
2018-10-17T11:30:54.582Z,15.03
2018-10-17T11:33:24.489Z,13.67
2018-10-17T11:35:54.882Z,17.30
2018-10-17T11:38:23.553Z,14.93
2018-10-17T11:40:56.417Z,15.63
2018-10-17T11:43:25.151Z,15.03
2018-10-17T11:45:56.889Z,15.80
2018-10-17T11:48:25.992Z,17.50
2018-10-17T11:50:55.642Z,20.00
2018-10-17T11:53:25.737Z,17.00
2018-10-17T11:55:55.867Z,17.80
2018-10-17T11:58:26.563Z,17.00
2018-10-17T12:00:56.042Z,17.07
2018-10-17T12:03:26.654Z,17.80
2018-10-17T12:05:55.896Z,16.47
2018-10-17T12:08:25.769Z,18.67
2018-10-17T12:10:54.144Z,16.00
2018-10-17T12:13:25.252Z,18.40
2018-10-17T12:15:57.061Z,18.47
2018-10-17T12:18:25.721Z,20.97
2018-10-17T12:20:57.124Z,18.27
2018-10-17T12:23:26.140Z,14.77
2018-10-17T12:25:56.105Z,13.80
2018-10-17T12:28:25.527Z,14.93
2018-10-17T12:30:55.967Z,13.50
2018-10-17T12:33:26.326Z,14.40
2018-10-17T12:35:56.557Z,14.60
2018-10-17T12:38:26.645Z,14.07
2018-10-17T12:40:56.740Z,13.27
2018-10-17T12:43:26.138Z,12.27
2018-10-17T12:45:55.245Z,14.10
2018-10-17T12:48:25.439Z,15.40
2018-10-17T12:50:57.326Z,14.17
2018-10-17T12:53:26.017Z,12.53
2018-10-17T12:55:56.161Z,12.90
2018-10-17T12:58:26.327Z,12.00
2018-10-17T13:00:56.483Z,13.13
2018-10-17T13:03:26.397Z,12.70
2018-10-17T13:05:55.490Z,12.00
2018-10-17T13:08:27.348Z,12.83
2018-10-17T13:10:55.971Z,12.27
2018-10-17T13:13:26.090Z,12.30
2018-10-17T13:18:35.753Z,10.90
2018-10-17T13:21:07.812Z,12.43
2018-10-17T13:23:36.081Z,12.10
2018-10-17T13:26:05.614Z,12.80
2018-10-17T13:28:35.922Z,13.90
2018-10-17T13:31:06.210Z,15.73
2018-10-17T13:33:36.423Z,19.63
2018-10-17T13:36:06.363Z,14.47
2018-10-17T13:38:36.327Z,14.17
2018-10-17T13:41:05.360Z,11.70
2018-10-17T13:43:36.961Z,15.37
2018-10-17T13:46:06.032Z,12.27
2018-10-17T13:48:36.343Z,16.10
2018-10-17T13:51:07.260Z,11.03
2018-10-17T13:53:36.201Z,12.07
2018-10-17T13:56:06.181Z,12.33
2018-10-17T13:58:36.197Z,13.97
2018-10-17T14:01:07.351Z,11.47
2018-10-17T14:03:36.019Z,11.67
2018-10-17T14:06:05.964Z,11.97
2018-10-17T14:08:36.177Z,11.67
2018-10-17T14:11:06.128Z,13.70
2018-10-17T14:13:36.064Z,12.73
2018-10-17T14:16:05.635Z,12.23
2018-10-17T14:18:36.011Z,11.10
2018-10-17T14:21:05.679Z,11.50
2018-10-17T14:23:37.559Z,12.00
2018-10-17T14:26:06.245Z,10.57
2018-10-17T14:28:36.465Z,11.03
2018-10-17T14:31:05.751Z,11.07
2018-10-17T14:33:36.667Z,11.10
2018-10-17T14:36:06.642Z,11.90
2018-10-17T14:38:37.441Z,11.10
2018-10-17T14:41:06.142Z,17.80
2018-10-17T14:43:35.426Z,10.97
2018-10-17T14:46:07.205Z,10.50
2018-10-17T14:48:36.159Z,11.50
2018-10-17T14:51:06.074Z,11.30
2018-10-17T14:53:36.229Z,11.23
2018-10-17T14:56:06.460Z,12.00
2018-10-17T14:58:34.760Z,11.50
2018-10-17T15:01:06.342Z,12.10
2018-10-17T15:03:36.409Z,11.37
2018-10-17T15:06:06.526Z,11.10
2018-10-17T15:08:36.273Z,13.13
2018-10-17T15:11:06.455Z,11.60
2018-10-17T15:13:35.337Z,12.47
2018-10-17T15:16:07.065Z,12.03
2018-10-17T15:18:36.273Z,11.43
2018-10-17T15:21:05.503Z,11.63
2018-10-17T15:23:36.943Z,13.73
2018-10-17T15:26:05.670Z,11.40
2018-10-17T15:28:35.862Z,12.50
2018-10-17T15:31:05.971Z,11.83
2018-10-17T15:33:37.719Z,12.03
2018-10-17T15:36:06.474Z,11.90
2018-10-17T15:38:36.950Z,11.13
2018-10-17T15:41:06.922Z,13.23
2018-10-17T15:43:37.184Z,11.77
2018-10-17T15:46:07.635Z,12.20
2018-10-17T15:48:36.615Z,11.23
2018-10-17T15:51:06.648Z,11.70
2018-10-17T15:53:37.677Z,12.90
2018-10-17T15:56:06.435Z,11.90
2018-10-17T15:58:36.769Z,12.10
2018-10-17T16:01:07.148Z,13.10
2018-10-17T16:03:36.391Z,12.43
2018-10-17T16:06:06.647Z,13.50
2018-10-17T16:08:37.229Z,12.80
2018-10-17T16:11:06.542Z,13.40
2018-10-17T16:13:36.199Z,14.13
2018-10-17T16:16:08.033Z,17.83
2018-10-17T16:18:36.420Z,16.20
2018-10-17T16:21:06.821Z,19.53
2018-10-17T16:23:36.937Z,15.93
2018-10-17T16:26:06.385Z,15.87
2018-10-17T16:28:36.450Z,17.20
2018-10-17T16:31:06.612Z,15.03
2018-10-17T16:33:35.367Z,14.83
2018-10-17T16:36:06.855Z,15.27
2018-10-17T16:38:38.915Z,15.70
2018-10-17T16:41:08.346Z,18.30
2018-10-17T16:43:58.879Z,18.33
2018-10-17T16:46:46.483Z,17.57
2018-10-17T16:52:10.082Z,19.40
2018-10-17T16:59:06.212Z,21.63
2018-10-17T17:15:25.819Z,22.70
2018-10-17T17:18:02.263Z,25.12
2018-10-17T18:06:18.189Z,69.03
2018-10-17T18:08:58.701Z,72.65
2018-10-17T18:11:27.297Z,72.35
2018-10-17T18:14:38.707Z,74.77
2018-10-17T18:35:19.403Z,82.25
2018-10-17T18:48:03.511Z,84.50
2018-10-17T19:24:16.906Z,102.35
2018-10-17T19:49:28.643Z,114.40
2018-10-17T20:00:46.409Z,118.40
2018-10-17T20:03:48.816Z,125.45
2018-10-17T20:09:21.283Z,120.62
2018-10-17T20:17:49.875Z,129.68
2018-10-17T20:20:27.118Z,137.05
2018-10-17T20:23:08.759Z,128.95
2018-10-17T20:26:20.799Z,128.07
2018-10-17T20:28:56.227Z,134.60
2018-10-17T20:35:55.444Z,129.72
2018-10-17T20:38:36.808Z,138.32
2018-10-17T21:09:30.050Z,160.40
2018-10-17T21:12:22.322Z,152.27
2018-10-17T21:15:42.768Z,178.05
2018-10-17T21:18:35.374Z,177.45
2018-10-17T22:58:42.742Z,158.27
2018-10-17T23:01:11.424Z,155.20
2018-10-17T23:03:44.039Z,164.55
2018-10-17T23:06:20.987Z,168.07
2018-10-17T23:09:00.856Z,150.27
2018-10-17T23:11:29.578Z,159.27
2018-10-17T23:13:58.040Z,156.87
2018-10-17T23:16:26.833Z,160.97
2018-10-17T23:19:02.145Z,149.60
2018-10-17T23:21:35.384Z,169.07
2018-10-17T23:24:09.724Z,152.93
2018-10-17T23:26:38.446Z,141.53
2018-10-17T23:29:10.107Z,136.72
2018-10-17T23:31:41.679Z,120.10
2018-10-17T23:34:12.378Z,126.65
2018-10-17T23:36:44.376Z,127.65
2018-10-17T23:39:12.837Z,121.47
2018-10-17T23:41:45.621Z,129.90
2018-10-17T23:44:15.702Z,124.07
2018-10-17T23:46:47.130Z,128.27
2018-10-17T23:49:18.907Z,124.47
2018-10-17T23:57:17.665Z,110.40
2018-10-17T23:59:54.706Z,128.23
